MV Wenatchee — WCY3378 — position and weather

sailwx.info

Track history (hours):
 
Tides and Currents Weather Stations Pressure Air Temp Water Temp Dewpoint Dewpoint Depression Visibility Wind Speed Wind Dir Waves Ship Positions

MV Wenatchee

Owner: Washington, State of; Department of Tranportation, OLYMPIA, WA. More information available from US FCC via Universal Licensing System and Coast Guard Vessel Documentation Center.

Last reported at 2017-Oct-19 09:29 UTC. Time now 2017-Oct-19 09:33 UTC.
Position N 47°37' W 122°31'.

Length 95 m; draft 5.6 m.

Type: Passenger vessel. MMSI: 366749710.

Date/timePositionNaut miles runAvg speedWind from/ knotsBaromVisibWave heightAir tempDewpointWater temp
2017-Oct-19 09:29N 47°37' W 122°31'1 1.2
2017-Oct-19 09:00N 47°37' W 122°30'612.6
2017-Oct-19 08:30N 47°36' W 122°20'713.3
2017-Oct-19 08:01N 47°37' W 122°30'3 6.0
2017-Oct-19 07:30N 47°36' W 122°26'3 5.4
2017-Oct-19 07:00N 47°36' W 122°22'612.1
2017-Oct-19 06:30N 47°37' W 122°31'611.2
2017-Oct-19 06:00N 47°36' W 122°23'1 2.3
2017-Oct-19 05:23N 47°36' W 122°20'410.2
2017-Oct-19 05:00N 47°36' W 122°26'3 6.6
2017-Oct-19 04:30N 47°37' W 122°31'713.7
2017-Oct-19 04:00N 47°36' W 122°21'2 4.2
2017-Oct-19 03:30N 47°37' W 122°24'5 9.4
2017-Oct-19 03:00N 47°37' W 122°31'4 7.5
2017-Oct-19 02:31N 47°36' W 122°25'3 6.5
2017-Oct-19 02:00N 47°36' W 122°20'713.6
2017-Oct-19 01:30N 47°37' W 122°30'0 0.3
2017-Oct-19 01:00N 47°37' W 122°31'713.3
2017-Oct-19 00:29N 47°36' W 122°20'1 2.2
2017-Oct-19 00:00N 47°37' W 122°22'611.6
2017-Oct-18 23:30N 47°37' W 122°31'3 6.3
2017-Oct-18 23:00N 47°36' W 122°26'4 7.7
2017-Oct-18 22:29N 47°36' W 122°20'613.0
2017-Oct-18 22:00N 47°37' W 122°30'1 1.1
2017-Oct-18 21:30N 47°37' W 122°30'710.5
2017-Oct-18 20:53N 47°36' W 122°20'3 6.7
2017-Oct-18 20:30N 47°37' W 122°24'4 8.0
2017-Oct-18 19:58N 47°37' W 122°31'511.3
2017-Oct-18 19:30N 47°36' W 122°23'2 3.6
2017-Oct-18 19:01N 47°36' W 122°20'713.7
2017-Oct-18 18:30N 47°37' W 122°30'1 2.8
2017-Oct-18 18:01N 47°36' W 122°29'611.2
2017-Oct-18 17:29N 47°36' W 122°20'2 4.3
2017-Oct-18 17:00N 47°37' W 122°23'5 9.6
2017-Oct-18 16:30N 47°37' W 122°31'3 5.7
2017-Oct-18 16:01N 47°36' W 122°27'4 8.4
2017-Oct-18 15:29N 47°36' W 122°20'613.1
2017-Oct-18 15:00N 47°37' W 122°30'6 6.1
2017-Oct-18 13:58N 47°36' W 122°20'511.2
2017-Oct-18 13:30N 47°36' W 122°28'2 4.0
2017-Oct-18 13:00N 47°37' W 122°31'713.5
2017-Oct-18 12:30N 47°36' W 122°21'3 6.6
2017-Oct-18 12:00N 47°36' W 122°25'4 6.4
2017-Oct-18 11:28N 47°37' W 122°31'0 0.0
2017-Oct-18 10:55N 47°37' W 122°31'0 0.0
2017-Oct-18 10:28N 47°37' W 122°31'0 0.0
2017-Oct-18 09:58N 47°37' W 122°31'0 0.0
2017-Oct-18 09:28N 47°37' W 122°31'0 0.0
2017-Oct-18 08:58N 47°37' W 122°31'0 0.0
2017-Oct-18 08:28N 47°37' W 122°31'0 0.0
2017-Oct-18 07:58N 47°37' W 122°31'0 0.0
2017-Oct-18 07:28N 47°37' W 122°31'0 0.0
2017-Oct-18 06:58N 47°37' W 122°31'0 0.0
2017-Oct-18 06:28N 47°37' W 122°31'0 0.0
2017-Oct-18 05:58N 47°37' W 122°31'0 0.6
2017-Oct-18 05:30N 47°37' W 122°30'712.4
2017-Oct-18 04:58N 47°36' W 122°20'0 0.0
2017-Oct-18 04:29N 47°36' W 122°20'612.9
2017-Oct-18 04:00N 47°37' W 122°30'0 0.9
2017-Oct-18 03:31N 47°36' W 122°29'610.3
2017-Oct-18 02:56N 47°36' W 122°20'3 6.3
2017-Oct-18 02:31N 47°37' W 122°24'4 8.5
2017-Oct-18 02:00N 47°37' W 122°31'612.6
2017-Oct-18 01:30N 47°36' W 122°21'1 1.3
2017-Oct-18 01:00N 47°37' W 122°22'610.5
2017-Oct-18 00:28N 47°37' W 122°31'3 6.1
2017-Oct-18 00:01N 47°37' W 122°27'4 7.9
2017-Oct-17 23:29N 47°36' W 122°20'511.0
2017-Oct-17 23:00N 47°37' W 122°28'2 3.6
2017-Oct-17 22:30N 47°37' W 122°30'713.5
2017-Oct-17 22:00N 47°36' W 122°21'1 1.0
2017-Oct-17 21:30N 47°36' W 122°21'612.6
2017-Oct-17 21:00N 47°37' W 122°31'1 2.9
2017-Oct-17 20:30N 47°36' W 122°29'611.6
2017-Oct-17 20:00N 47°36' W 122°20'510.7
2017-Oct-17 19:30N 47°36' W 122°28'2 3.7
2017-Oct-17 19:00N 47°37' W 122°31'611.6
2017-Oct-17 18:30N 47°36' W 122°22'1 2.4
2017-Oct-17 18:00N 47°36' W 122°20'612.7
2017-Oct-17 17:30N 47°37' W 122°30'0 0.6
2017-Oct-17 17:00N 47°37' W 122°30'612.2
2017-Oct-17 16:29N 47°36' W 122°20'5 9.5
2017-Oct-17 16:00N 47°37' W 122°27'2 4.8
2017-Oct-17 15:30N 47°37' W 122°31'713.1
2017-Oct-17 15:00N 47°36' W 122°21'0 0.1
2017-Oct-17 14:30N 47°36' W 122°21'612.8
2017-Oct-17 14:00N 47°37' W 122°31'2 4.9
2017-Oct-17 13:30N 47°36' W 122°27'5 9.4
2017-Oct-17 13:00N 47°36' W 122°20'5 9.8
2017-Oct-17 12:30N 47°37' W 122°28'2 4.2
2017-Oct-17 12:00N 47°37' W 122°31'0 0.0
2017-Oct-17 11:30N 47°37' W 122°31'0 0.0
2017-Oct-17 11:00N 47°37' W 122°31'0 0.0
2017-Oct-17 10:30N 47°37' W 122°31'0 0.0
2017-Oct-17 10:00N 47°37' W 122°31'0 0.0
2017-Oct-17 09:30N 47°37' W 122°31'0 0.0
2017-Oct-17 09:00N 47°37' W 122°31'0 0.0
2017-Oct-17 08:30N 47°37' W 122°31'0 0.0
2017-Oct-17 08:00N 47°37' W 122°31'0 0.0
2017-Oct-17 07:30N 47°37' W 122°31'0 0.0
2017-Oct-17 07:01N 47°37' W 122°31'0 0.0
2017-Oct-17 06:30N 47°37' W 122°31'0 0.0
2017-Oct-17 06:00N 47°37' W 122°31'0 0.7
2017-Oct-17 05:31N 47°37' W 122°30'711.7
2017-Oct-17 04:57N 47°36' W 122°20'0 0.0
2017-Oct-17 04:30N 47°36' W 122°20'613.0
2017-Oct-17 04:00N 47°37' W 122°30'1 2.3
2017-Oct-17 03:30N 47°36' W 122°29'610.6
2017-Oct-17 02:58N 47°36' W 122°20'2 4.2
2017-Oct-17 02:31N 47°37' W 122°23'5 9.5
2017-Oct-17 01:59N 47°37' W 122°31'4 9.1
2017-Oct-17 01:30N 47°36' W 122°24'3 5.1
2017-Oct-17 01:00N 47°36' W 122°20'713.7
2017-Oct-17 00:31N 47°37' W 122°30'2 3.5
2017-Oct-17 00:01N 47°36' W 122°28'5 9.9
2017-Oct-16 23:30N 47°36' W 122°21'4 8.9
2017-Oct-16 23:00N 47°37' W 122°27'2 4.6
2017-Oct-16 22:30N 47°37' W 122°31'713.7
2017-Oct-16 22:00N 47°36' W 122°21'0 0.4
2017-Oct-16 21:30N 47°36' W 122°21'712.9
2017-Oct-16 21:00N 47°37' W 122°31'1 2.4
2017-Oct-16 20:31N 47°36' W 122°29'611.3
2017-Oct-16 19:58N 47°36' W 122°20'511.3
2017-Oct-16 19:31N 47°36' W 122°28'2 3.7
2017-Oct-16 19:00N 47°37' W 122°31'611.7
2017-Oct-16 18:30N 47°36' W 122°22'1 2.3
2017-Oct-16 17:59N 47°36' W 122°20'613.2
2017-Oct-16 17:30N 47°37' W 122°30'0 0.9
2017-Oct-16 17:00N 47°37' W 122°30'712.7
2017-Oct-16 16:29N 47°36' W 122°20'4 7.7
2017-Oct-16 16:00N 47°37' W 122°26'3 6.2
2017-Oct-16 15:29N 47°37' W 122°31'511.1
2017-Oct-16 15:00N 47°36' W 122°23'5 5.2
2017-Oct-16 13:59N 47°37' W 122°31'2 3.8
2017-Oct-16 13:31N 47°36' W 122°29'610.0
2017-Oct-16 12:58N 47°36' W 122°20'510.9
2017-Oct-16 12:30N 47°36' W 122°28'2 4.0
2017-Oct-16 11:59N 47°37' W 122°31'0 0.0
2017-Oct-16 11:29N 47°37' W 122°31'0 0.0
2017-Oct-16 10:59N 47°37' W 122°31'0 0.0
2017-Oct-16 10:29N 47°37' W 122°31'0 0.0
2017-Oct-16 09:59N 47°37' W 122°31'3 6.2
2017-Oct-16 09:30N 47°36' W 122°27'4 8.1
2017-Oct-16 09:00N 47°36' W 122°20'613.0
2017-Oct-16 08:30N 47°37' W 122°30'2 4.3
2017-Oct-16 08:00N 47°36' W 122°27'4 8.4
2017-Oct-16 07:30N 47°36' W 122°21'712.5
2017-Oct-16 06:58N 47°37' W 122°31'2 5.4
2017-Oct-16 06:31N 47°36' W 122°27'4 8.5
2017-Oct-16 06:00N 47°36' W 122°21'713.0
2017-Oct-16 05:30N 47°37' W 122°31'3 6.4
2017-Oct-16 05:00N 47°36' W 122°26'4 7.8
2017-Oct-16 04:30N 47°36' W 122°20'612.7
2017-Oct-16 04:00N 47°37' W 122°30'1 2.1
2017-Oct-16 03:31N 47°36' W 122°29'611.2
2017-Oct-16 03:00N 47°36' W 122°20'3 6.9
2017-Oct-16 02:30N 47°37' W 122°25'4 6.5
2017-Oct-16 01:58N 47°37' W 122°31'511.6
2017-Oct-16 01:30N 47°36' W 122°23'1 2.2
2017-Oct-16 01:00N 47°36' W 122°21'611.9
2017-Oct-16 00:29N 47°37' W 122°31'2 4.7
2017-Oct-16 00:00N 47°36' W 122°28'5 9.1
2017-Oct-15 23:27N 47°36' W 122°20'612.9
2017-Oct-15 23:01N 47°36' W 122°29'1 3.0
2017-Oct-15 22:31N 47°37' W 122°31'713.7
2017-Oct-15 22:01N 47°36' W 122°21'1 2.6
2017-Oct-15 21:30N 47°36' W 122°22'610.4
2017-Oct-15 20:58N 47°37' W 122°31'3 6.2
2017-Oct-15 20:30N 47°36' W 122°27'4 8.6
2017-Oct-15 20:00N 47°36' W 122°20'612.8
2017-Oct-15 19:30N 47°37' W 122°30'1 1.4
2017-Oct-15 18:58N 47°37' W 122°31'612.2
2017-Oct-15 18:30N 47°36' W 122°22'1 2.4
2017-Oct-15 17:58N 47°36' W 122°20'613.4
2017-Oct-15 17:31N 47°37' W 122°30'1 1.0
2017-Oct-15 17:00N 47°37' W 122°30'612.1
2017-Oct-15 16:29N 47°36' W 122°20'4 7.5
2017-Oct-15 16:01N 47°36' W 122°26'3 6.4
2017-Oct-15 15:29N 47°37' W 122°31'611.7
2017-Oct-15 15:00N 47°36' W 122°23'6 5.5
2017-Oct-15 14:00N 47°37' W 122°31'1 2.9
2017-Oct-15 13:31N 47°36' W 122°29'611.1
2017-Oct-15 12:59N 47°36' W 122°20'511.0
2017-Oct-15 12:30N 47°36' W 122°28'2 3.5
2017-Oct-15 11:56N 47°37' W 122°31'0 0.0
2017-Oct-15 11:29N 47°37' W 122°31'0 0.0
2017-Oct-15 10:59N 47°37' W 122°31'0 0.0
2017-Oct-15 10:29N 47°37' W 122°31'0 0.0
2017-Oct-15 10:00N 47°37' W 122°31'2 4.7
2017-Oct-15 09:30N 47°36' W 122°28'5 9.6
2017-Oct-15 09:00N 47°36' W 122°20'713.2
2017-Oct-15 08:29N 47°37' W 122°31'4 7.8
2017-Oct-15 08:00N 47°36' W 122°25'2 4.2
2017-Oct-15 07:30N 47°36' W 122°22'611.1
2017-Oct-15 06:59N 47°37' W 122°31'5 9.6
2017-Oct-15 06:30N 47°36' W 122°24'1 1.6
2017-Oct-15 06:00N 47°36' W 122°23'5 9.8
2017-Oct-15 05:28N 47°37' W 122°31'4 7.7
2017-Oct-15 05:00N 47°36' W 122°26'4 6.7
2017-Oct-15 04:29N 47°36' W 122°20'613.1
2017-Oct-15 04:00N 47°37' W 122°30'1 1.0
2017-Oct-15 03:30N 47°36' W 122°29'611.3
2017-Oct-15 02:59N 47°36' W 122°20'3 6.9
2017-Oct-15 02:30N 47°36' W 122°25'4 7.4
2017-Oct-15 02:01N 47°37' W 122°31'711.2
2017-Oct-15 01:23N 47°36' W 122°20'3 7.8
2017-Oct-15 01:00N 47°37' W 122°25'4 7.8
2017-Oct-15 00:30N 47°37' W 122°31'5 9.9
2017-Oct-15 00:00N 47°36' W 122°24'2 4.1
2017-Oct-14 23:29N 47°36' W 122°20'613.0
2017-Oct-14 23:00N 47°37' W 122°30'1 1.1
2017-Oct-14 22:30N 47°37' W 122°30'713.1
2017-Oct-14 22:00N 47°36' W 122°21'0 0.7
2017-Oct-14 21:30N 47°36' W 122°21'712.6
2017-Oct-14 21:00N 47°37' W 122°31'2 4.5
2017-Oct-14 20:30N 47°36' W 122°28'510.3
2017-Oct-14 20:00N 47°36' W 122°20'510.4
2017-Oct-14 19:30N 47°36' W 122°28'2 3.7
2017-Oct-14 18:59N 47°37' W 122°31'612.2
2017-Oct-14 18:30N 47°36' W 122°22'1 2.2
2017-Oct-14 17:59N 47°36' W 122°20'613.3
2017-Oct-14 17:30N 47°37' W 122°30'0 0.8
2017-Oct-14 17:00N 47°37' W 122°30'610.1
2017-Oct-14 16:22N 47°36' W 122°20'3 9.4
2017-Oct-14 16:00N 47°37' W 122°25'4 7.0
2017-Oct-14 15:30N 47°37' W 122°31'611.2
2017-Oct-14 15:01N 47°36' W 122°23'1 2.0
2017-Oct-14 14:30N 47°36' W 122°21'712.4
2017-Oct-14 13:59N 47°37' W 122°31'1 2.4
2017-Oct-14 13:30N 47°37' W 122°29'610.7
2017-Oct-14 12:56N 47°36' W 122°20'613.7
2017-Oct-14 12:30N 47°36' W 122°29'1 2.6
2017-Oct-14 11:59N 47°37' W 122°31'0 0.0
2017-Oct-14 11:29N 47°37' W 122°31'0 0.0
2017-Oct-14 10:59N 47°37' W 122°31'0 0.0
2017-Oct-14 10:29N 47°37' W 122°31'0 0.0
2017-Oct-14 09:59N 47°37' W 122°31'0 0.0
2017-Oct-14 09:29N 47°37' W 122°31'0 0.0
2017-Oct-14 08:59N 47°37' W 122°31'0 0.0
2017-Oct-14 08:29N 47°37' W 122°31'0 0.0
2017-Oct-14 07:59N 47°37' W 122°31'0 0.0
2017-Oct-14 07:29N 47°37' W 122°31'0 0.0
2017-Oct-14 06:59N 47°37' W 122°31'0 0.0
2017-Oct-14 06:28N 47°37' W 122°31'0 0.0
2017-Oct-14 06:00N 47°37' W 122°31'0 0.4
2017-Oct-14 05:30N 47°37' W 122°30'713.1
2017-Oct-14 05:00N 47°36' W 122°20'0 0.0
2017-Oct-14 04:30N 47°36' W 122°20'612.8
2017-Oct-14 04:00N 47°37' W 122°30'1 1.9
2017-Oct-14 03:30N 47°36' W 122°29'611.1
2017-Oct-14 03:00N 47°36' W 122°20'2 4.1
2017-Oct-14 02:30N 47°37' W 122°23'5 9.2
2017-Oct-14 01:59N 47°37' W 122°31'713.1
2017-Oct-14 01:28N 47°36' W 122°21'0 0.3
2017-Oct-14 01:00N 47°36' W 122°21'7 9.5
2017-Oct-14 00:17N 47°37' W 122°31'310.3
2017-Oct-14 00:00N 47°36' W 122°26'4 6.2
2017-Oct-13 23:20N 47°36' W 122°20'515.4
2017-Oct-13 23:01N 47°36' W 122°28'2 4.0
2017-Oct-13 22:30N 47°37' W 122°30'713.3
2017-Oct-13 22:00N 47°36' W 122°20'1 2.3
2017-Oct-13 21:31N 47°36' W 122°22'611.4
2017-Oct-13 21:00N 47°37' W 122°31'2 5.0
2017-Oct-13 20:30N 47°36' W 122°28'5 9.2
2017-Oct-13 19:59N 47°36' W 122°20'510.9
2017-Oct-13 19:30N 47°36' W 122°28'2 3.8
2017-Oct-13 19:00N 47°37' W 122°31'611.4
2017-Oct-13 18:30N 47°36' W 122°22'1 2.7
2017-Oct-13 17:59N 47°36' W 122°20'613.1
2017-Oct-13 17:31N 47°37' W 122°30'0 1.0
2017-Oct-13 17:01N 47°37' W 122°30'713.1
2017-Oct-13 16:30N 47°36' W 122°20'4 7.7
2017-Oct-13 16:01N 47°36' W 122°26'3 6.3
2017-Oct-13 15:29N 47°37' W 122°31'511.1
2017-Oct-13 15:00N 47°36' W 122°23'1 1.9
2017-Oct-13 14:30N 47°36' W 122°21'611.9
2017-Oct-13 13:59N 47°37' W 122°31'2 4.1
2017-Oct-13 13:31N 47°36' W 122°28'510.0
2017-Oct-13 12:58N 47°36' W 122°20'510.8
2017-Oct-13 12:30N 47°36' W 122°28'2 4.7
2017-Oct-13 12:00N 47°37' W 122°31'0 0.0
2017-Oct-13 11:26N 47°37' W 122°31'0 0.0
2017-Oct-13 10:59N 47°37' W 122°31'0 0.0
2017-Oct-13 10:29N 47°37' W 122°31'0 0.0
2017-Oct-13 09:59N 47°37' W 122°31'0 0.0
2017-Oct-13 09:29N 47°37' W 122°31'0 0.0
2017-Oct-13 09:00N 47°37' W 122°31'0 0.0
2017-Oct-13 08:29N 47°37' W 122°31'0 0.0
2017-Oct-13 08:00N 47°37' W 122°31'0 0.0
2017-Oct-13 07:26N 47°37' W 122°31'0 0.0
2017-Oct-13 06:59N 47°37' W 122°31'0 0.0
2017-Oct-13 06:29N 47°37' W 122°31'0 0.0
2017-Oct-13 05:59N 47°37' W 122°31'1 1.1
2017-Oct-13 05:30N 47°37' W 122°30'612.4
2017-Oct-13 04:59N 47°36' W 122°20'0 0.0
2017-Oct-13 04:30N 47°36' W 122°20'612.7
2017-Oct-13 04:00N 47°37' W 122°30'1 1.8
2017-Oct-13 03:30N 47°36' W 122°29'611.0
2017-Oct-13 02:59N 47°36' W 122°20'3 6.6
2017-Oct-13 02:31N 47°37' W 122°25'4 7.7
2017-Oct-13 02:00N 47°37' W 122°31'713.3
2017-Oct-13 01:30N 47°36' W 122°21'0 0.5
2017-Oct-13 01:00N 47°36' W 122°21'613.0
2017-Oct-13 00:31N 47°37' W 122°31'3 5.2
2017-Oct-13 00:00N 47°36' W 122°27'5 8.6
2017-Oct-12 23:29N 47°36' W 122°20'511.2
2017-Oct-12 23:00N 47°36' W 122°28'2 3.5
2017-Oct-12 22:30N 47°37' W 122°31'713.6
2017-Oct-12 22:00N 47°36' W 122°20'1 2.1
2017-Oct-12 21:30N 47°36' W 122°22'611.4
2017-Oct-12 21:00N 47°37' W 122°31'1 2.6
2017-Oct-12 20:30N 47°36' W 122°29'611.1
2017-Oct-12 19:58N 47°36' W 122°20'510.8
2017-Oct-12 19:30N 47°36' W 122°28'2 4.0
2017-Oct-12 19:00N 47°37' W 122°31'611.7
2017-Oct-12 18:30N 47°36' W 122°22'1 2.6
2017-Oct-12 18:00N 47°36' W 122°20'612.4
2017-Oct-12 17:31N 47°37' W 122°30'1 1.4
2017-Oct-12 17:00N 47°37' W 122°30'712.8
2017-Oct-12 16:29N 47°36' W 122°20'3 7.2
2017-Oct-12 16:01N 47°37' W 122°25'4 6.9
2017-Oct-12 15:30N 47°37' W 122°31'611.2
2017-Oct-12 15:00N 47°36' W 122°22'1 2.3
2017-Oct-12 14:30N 47°36' W 122°21'713.4
2017-Oct-12 14:00N 47°37' W 122°31'2 4.6
2017-Oct-12 13:30N 47°36' W 122°28'5 8.7
2017-Oct-12 12:56N 47°36' W 122°20'511.9
2017-Oct-12 12:30N 47°36' W 122°28'2 3.4
2017-Oct-12 11:55N 47°37' W 122°31'0 0.0
2017-Oct-12 11:29N 47°37' W 122°31'0 0.0
2017-Oct-12 10:58N 47°37' W 122°31'0 0.0
2017-Oct-12 10:28N 47°37' W 122°31'0 0.0
2017-Oct-12 09:58N 47°37' W 122°31'0 0.0
2017-Oct-12 09:28N 47°37' W 122°31'0 0.0
2017-Oct-12 08:58N 47°37' W 122°31'0 0.0
2017-Oct-12 08:29N 47°37' W 122°31'0 0.0
2017-Oct-12 07:59N 47°37' W 122°31'0 0.0
2017-Oct-12 07:28N 47°37' W 122°31'0 0.0
2017-Oct-12 06:58N 47°37' W 122°31'0 0.0
2017-Oct-12 06:28N 47°37' W 122°31'0 0.0
2017-Oct-12 05:58N 47°37' W 122°31'0 0.9
2017-Oct-12 05:30N 47°37' W 122°30'712.7
2017-Oct-12 05:00N 47°36' W 122°20'0 0.0
2017-Oct-12 04:30N 47°36' W 122°20'713.1
2017-Oct-12 04:00N 47°37' W 122°30'1 2.6
2017-Oct-12 03:30N 47°36' W 122°29'610.6
2017-Oct-12 02:59N 47°36' W 122°20'2 4.2
2017-Oct-12 02:30N 47°36' W 122°23'5 9.2
2017-Oct-12 01:58N 47°37' W 122°31'4 9.4
2017-Oct-12 01:30N 47°36' W 122°24'2 4.7
2017-Oct-12 01:00N 47°36' W 122°21'713.7
2017-Oct-12 00:30N 47°37' W 122°30'1 2.8
2017-Oct-12 00:00N 47°36' W 122°29'611.2
2017-Oct-11 23:30N 47°36' W 122°20'510.8
2017-Oct-11 23:00N 47°37' W 122°28'2 3.6
2017-Oct-11 22:30N 47°37' W 122°31'713.7
2017-Oct-11 22:00N 47°36' W 122°21'1 1.2
2017-Oct-11 21:31N 47°36' W 122°21'612.2
2017-Oct-11 20:59N 47°37' W 122°31'1 2.4
2017-Oct-11 20:30N 47°36' W 122°29'610.5
2017-Oct-11 19:56N 47°36' W 122°20'512.7
2017-Oct-11 19:30N 47°36' W 122°28'2 3.3
2017-Oct-11 18:58N 47°37' W 122°31'612.3
2017-Oct-11 18:31N 47°36' W 122°22'1 2.3
2017-Oct-11 17:59N 47°36' W 122°20'613.4
2017-Oct-11 17:30N 47°37' W 122°30'1 1.4
2017-Oct-11 17:00N 47°36' W 122°29'3 0.2
2017-Oct-11 00:00N 47°36' W 122°24'4 8.7
2017-Oct-10 23:30N 47°37' W 122°31'4 8.5
2017-Oct-10 23:01N 47°36' W 122°25'3 5.6
2017-Oct-10 22:30N 47°36' W 122°20'713.2
2017-Oct-10 22:00N 47°37' W 122°30'0 0.2
2017-Oct-10 21:30N 47°37' W 122°30'612.2
2017-Oct-10 20:59N 47°36' W 122°20'2 3.7
2017-Oct-10 20:30N 47°36' W 122°23'510.0
2017-Oct-10 20:00N 47°37' W 122°31'4 8.5
2017-Oct-10 19:31N 47°36' W 122°25'3 5.7
2017-Oct-10 19:00N 47°36' W 122°20'712.9
2017-Oct-10 18:28N 47°37' W 122°31'2 3.3
2017-Oct-10 18:01N 47°36' W 122°29'611.0
2017-Oct-10 17:29N 47°36' W 122°20'2 3.9
2017-Oct-10 17:01N 47°36' W 122°23'5 9.6
2017-Oct-10 16:29N 47°37' W 122°31'3 7.4
2017-Oct-10 16:00N 47°36' W 122°26'4 7.3
2017-Oct-10 15:30N 47°36' W 122°20'713.4
2017-Oct-10 14:59N 47°37' W 122°31'7 7.1
2017-Oct-10 14:01N 47°36' W 122°20'510.2
2017-Oct-10 13:30N 47°36' W 122°28'2 3.7
2017-Oct-10 13:00N 47°37' W 122°30'713.4
2017-Oct-10 12:30N 47°36' W 122°21'3 6.6
2017-Oct-10 12:01N 47°36' W 122°25'4 6.7
2017-Oct-10 11:28N 47°37' W 122°31'0 0.0
2017-Oct-10 11:00N 47°37' W 122°31'0 0.0
2017-Oct-10 10:30N 47°37' W 122°31'0 0.0
2017-Oct-10 10:00N 47°37' W 122°31'0 0.0
2017-Oct-10 09:30N 47°37' W 122°31'1 1.3
2017-Oct-10 09:01N 47°37' W 122°30'612.6
2017-Oct-10 08:30N 47°36' W 122°20'713.1
2017-Oct-10 08:00N 47°37' W 122°30'2 4.7
2017-Oct-10 07:30N 47°36' W 122°27'3 6.8
2017-Oct-10 07:01N 47°36' W 122°22'611.7
2017-Oct-10 06:30N 47°37' W 122°31'511.1
2017-Oct-10 06:00N 47°36' W 122°23'2 3.0
2017-Oct-10 05:29N 47°36' W 122°20'4 7.9
2017-Oct-10 05:01N 47°36' W 122°26'3 6.1
2017-Oct-10 04:31N 47°37' W 122°30'712.9
2017-Oct-10 03:59N 47°36' W 122°20'2 5.0
2017-Oct-10 03:30N 47°37' W 122°24'5 9.1
2017-Oct-10 03:00N 47°37' W 122°31'4 8.1
2017-Oct-10 02:31N 47°36' W 122°25'3 5.8
2017-Oct-10 02:00N 47°36' W 122°21'713.6
2017-Oct-10 01:30N 47°37' W 122°30'0 0.8
2017-Oct-10 01:00N 47°37' W 122°30'612.5
2017-Oct-10 00:30N 47°36' W 122°20'2 3.2
2017-Oct-10 00:00N 47°36' W 122°23'510.2
2017-Oct-09 23:29N 47°37' W 122°31'4 8.9
2017-Oct-09 23:00N 47°36' W 122°25'3 5.3
2017-Oct-09 22:29N 47°36' W 122°20'613.4
2017-Oct-09 22:00N 47°37' W 122°30'0 0.1
2017-Oct-09 21:30N 47°37' W 122°30'611.5
2017-Oct-09 20:57N 47°36' W 122°20'3 6.8
2017-Oct-09 20:30N 47°37' W 122°25'4 7.8
2017-Oct-09 20:00N 47°37' W 122°31'611.9
2017-Oct-09 19:31N 47°36' W 122°22'0 0.7
2017-Oct-09 19:01N 47°36' W 122°21'612.1
2017-Oct-09 18:30N 47°37' W 122°30'1 2.9
2017-Oct-09 18:00N 47°36' W 122°29'610.3
2017-Oct-09 17:26N 47°36' W 122°20'2 5.2
2017-Oct-09 17:00N 47°37' W 122°24'5 8.9
2017-Oct-09 16:29N 47°37' W 122°31'3 6.1
2017-Oct-09 16:00N 47°36' W 122°27'4 8.3
2017-Oct-09 15:30N 47°36' W 122°20'612.9
2017-Oct-09 15:00N 47°37' W 122°30'1 1.1
2017-Oct-09 14:30N 47°36' W 122°29'611.8
2017-Oct-09 14:00N 47°36' W 122°20'5 9.9
2017-Oct-09 13:30N 47°36' W 122°27'2 4.6
2017-Oct-09 13:00N 47°37' W 122°31'713.6
2017-Oct-09 12:30N 47°36' W 122°21'4 7.6
2017-Oct-09 12:01N 47°36' W 122°26'3 6.5
2017-Oct-09 11:30N 47°37' W 122°31'0 0.0
2017-Oct-09 11:00N 47°37' W 122°31'0 0.0
2017-Oct-09 10:30N 47°37' W 122°31'0 0.0
2017-Oct-09 10:00N 47°37' W 122°31'0 0.0
2017-Oct-09 09:31N 47°37' W 122°31'  
Track history (hours):
 
Tides and Currents Weather Stations Pressure Air Temp Water Temp Dewpoint Dewpoint Depression Visibility Wind Speed Wind Dir Waves Ship Positions

MV Wenatchee

Owner: Washington, State of; Department of Tranportation, OLYMPIA, WA. More information available from US FCC via Universal Licensing System and Coast Guard Vessel Documentation Center.

Last reported at 2017-Oct-19 09:29 UTC. Time now 2017-Oct-19 09:33 UTC.
Position N 47°37' W 122°31'.

Length 95 m; draft 5.6 m.

Type: Passenger vessel. MMSI: 366749710.

Date/timePositionNaut miles runAvg speedWind from/ knotsBaromVisibWave heightAir tempDewpointWater temp
2017-Oct-19 09:29N 47°37' W 122°31'1 1.2
2017-Oct-19 09:00N 47°37' W 122°30'612.6
2017-Oct-19 08:30N 47°36' W 122°20'713.3
2017-Oct-19 08:01N 47°37' W 122°30'3 6.0
2017-Oct-19 07:30N 47°36' W 122°26'3 5.4
2017-Oct-19 07:00N 47°36' W 122°22'612.1
2017-Oct-19 06:30N 47°37' W 122°31'611.2
2017-Oct-19 06:00N 47°36' W 122°23'1 2.3
2017-Oct-19 05:23N 47°36' W 122°20'410.2
2017-Oct-19 05:00N 47°36' W 122°26'3 6.6
2017-Oct-19 04:30N 47°37' W 122°31'713.7
2017-Oct-19 04:00N 47°36' W 122°21'2 4.2
2017-Oct-19 03:30N 47°37' W 122°24'5 9.4
2017-Oct-19 03:00N 47°37' W 122°31'4 7.5
2017-Oct-19 02:31N 47°36' W 122°25'3 6.5
2017-Oct-19 02:00N 47°36' W 122°20'713.6
2017-Oct-19 01:30N 47°37' W 122°30'0 0.3
2017-Oct-19 01:00N 47°37' W 122°31'713.3
2017-Oct-19 00:29N 47°36' W 122°20'1 2.2
2017-Oct-19 00:00N 47°37' W 122°22'611.6
2017-Oct-18 23:30N 47°37' W 122°31'3 6.3
2017-Oct-18 23:00N 47°36' W 122°26'4 7.7
2017-Oct-18 22:29N 47°36' W 122°20'613.0
2017-Oct-18 22:00N 47°37' W 122°30'1 1.1
2017-Oct-18 21:30N 47°37' W 122°30'710.5
2017-Oct-18 20:53N 47°36' W 122°20'3 6.7
2017-Oct-18 20:30N 47°37' W 122°24'4 8.0
2017-Oct-18 19:58N 47°37' W 122°31'511.3
2017-Oct-18 19:30N 47°36' W 122°23'2 3.6
2017-Oct-18 19:01N 47°36' W 122°20'713.7
2017-Oct-18 18:30N 47°37' W 122°30'1 2.8
2017-Oct-18 18:01N 47°36' W 122°29'611.2
2017-Oct-18 17:29N 47°36' W 122°20'2 4.3
2017-Oct-18 17:00N 47°37' W 122°23'5 9.6
2017-Oct-18 16:30N 47°37' W 122°31'3 5.7
2017-Oct-18 16:01N 47°36' W 122°27'4 8.4
2017-Oct-18 15:29N 47°36' W 122°20'613.1
2017-Oct-18 15:00N 47°37' W 122°30'6 6.1
2017-Oct-18 13:58N 47°36' W 122°20'511.2
2017-Oct-18 13:30N 47°36' W 122°28'2 4.0
2017-Oct-18 13:00N 47°37' W 122°31'713.5
2017-Oct-18 12:30N 47°36' W 122°21'3 6.6
2017-Oct-18 12:00N 47°36' W 122°25'4 6.4
2017-Oct-18 11:28N 47°37' W 122°31'0 0.0
2017-Oct-18 10:55N 47°37' W 122°31'0 0.0
2017-Oct-18 10:28N 47°37' W 122°31'0 0.0
2017-Oct-18 09:58N 47°37' W 122°31'0 0.0
2017-Oct-18 09:28N 47°37' W 122°31'0 0.0
2017-Oct-18 08:58N 47°37' W 122°31'0 0.0
2017-Oct-18 08:28N 47°37' W 122°31'0 0.0
2017-Oct-18 07:58N 47°37' W 122°31'0 0.0
2017-Oct-18 07:28N 47°37' W 122°31'0 0.0
2017-Oct-18 06:58N 47°37' W 122°31'0 0.0
2017-Oct-18 06:28N 47°37' W 122°31'0 0.0
2017-Oct-18 05:58N 47°37' W 122°31'0 0.6
2017-Oct-18 05:30N 47°37' W 122°30'712.4
2017-Oct-18 04:58N 47°36' W 122°20'0 0.0
2017-Oct-18 04:29N 47°36' W 122°20'612.9
2017-Oct-18 04:00N 47°37' W 122°30'0 0.9
2017-Oct-18 03:31N 47°36' W 122°29'610.3
2017-Oct-18 02:56N 47°36' W 122°20'3 6.3
2017-Oct-18 02:31N 47°37' W 122°24'4 8.5
2017-Oct-18 02:00N 47°37' W 122°31'612.6
2017-Oct-18 01:30N 47°36' W 122°21'1 1.3
2017-Oct-18 01:00N 47°37' W 122°22'610.5
2017-Oct-18 00:28N 47°37' W 122°31'3 6.1
2017-Oct-18 00:01N 47°37' W 122°27'4 7.9
2017-Oct-17 23:29N 47°36' W 122°20'511.0
2017-Oct-17 23:00N 47°37' W 122°28'2 3.6
2017-Oct-17 22:30N 47°37' W 122°30'713.5
2017-Oct-17 22:00N 47°36' W 122°21'1 1.0
2017-Oct-17 21:30N 47°36' W 122°21'612.6
2017-Oct-17 21:00N 47°37' W 122°31'1 2.9
2017-Oct-17 20:30N 47°36' W 122°29'611.6
2017-Oct-17 20:00N 47°36' W 122°20'510.7
2017-Oct-17 19:30N 47°36' W 122°28'2 3.7
2017-Oct-17 19:00N 47°37' W 122°31'611.6
2017-Oct-17 18:30N 47°36' W 122°22'1 2.4
2017-Oct-17 18:00N 47°36' W 122°20'612.7
2017-Oct-17 17:30N 47°37' W 122°30'0 0.6
2017-Oct-17 17:00N 47°37' W 122°30'612.2
2017-Oct-17 16:29N 47°36' W 122°20'5 9.5
2017-Oct-17 16:00N 47°37' W 122°27'2 4.8
2017-Oct-17 15:30N 47°37' W 122°31'713.1
2017-Oct-17 15:00N 47°36' W 122°21'0 0.1
2017-Oct-17 14:30N 47°36' W 122°21'612.8
2017-Oct-17 14:00N 47°37' W 122°31'2 4.9
2017-Oct-17 13:30N 47°36' W 122°27'5 9.4
2017-Oct-17 13:00N 47°36' W 122°20'5 9.8
2017-Oct-17 12:30N 47°37' W 122°28'2 4.2
2017-Oct-17 12:00N 47°37' W 122°31'0 0.0
2017-Oct-17 11:30N 47°37' W 122°31'0 0.0
2017-Oct-17 11:00N 47°37' W 122°31'0 0.0
2017-Oct-17 10:30N 47°37' W 122°31'0 0.0
2017-Oct-17 10:00N 47°37' W 122°31'0 0.0
2017-Oct-17 09:30N 47°37' W 122°31'0 0.0
2017-Oct-17 09:00N 47°37' W 122°31'0 0.0
2017-Oct-17 08:30N 47°37' W 122°31'0 0.0
2017-Oct-17 08:00N 47°37' W 122°31'0 0.0
2017-Oct-17 07:30N 47°37' W 122°31'0 0.0
2017-Oct-17 07:01N 47°37' W 122°31'0 0.0
2017-Oct-17 06:30N 47°37' W 122°31'0 0.0
2017-Oct-17 06:00N 47°37' W 122°31'0 0.7
2017-Oct-17 05:31N 47°37' W 122°30'711.7
2017-Oct-17 04:57N 47°36' W 122°20'0 0.0
2017-Oct-17 04:30N 47°36' W 122°20'613.0
2017-Oct-17 04:00N 47°37' W 122°30'1 2.3
2017-Oct-17 03:30N 47°36' W 122°29'610.6
2017-Oct-17 02:58N 47°36' W 122°20'2 4.2
2017-Oct-17 02:31N 47°37' W 122°23'5 9.5
2017-Oct-17 01:59N 47°37' W 122°31'4 9.1
2017-Oct-17 01:30N 47°36' W 122°24'3 5.1
2017-Oct-17 01:00N 47°36' W 122°20'713.7
2017-Oct-17 00:31N 47°37' W 122°30'2 3.5
2017-Oct-17 00:01N 47°36' W 122°28'5 9.9
2017-Oct-16 23:30N 47°36' W 122°21'4 8.9
2017-Oct-16 23:00N 47°37' W 122°27'2 4.6
2017-Oct-16 22:30N 47°37' W 122°31'713.7
2017-Oct-16 22:00N 47°36' W 122°21'0 0.4
2017-Oct-16 21:30N 47°36' W 122°21'712.9
2017-Oct-16 21:00N 47°37' W 122°31'1 2.4
2017-Oct-16 20:31N 47°36' W 122°29'611.3
2017-Oct-16 19:58N 47°36' W 122°20'511.3
2017-Oct-16 19:31N 47°36' W 122°28'2 3.7
2017-Oct-16 19:00N 47°37' W 122°31'611.7
2017-Oct-16 18:30N 47°36' W 122°22'1 2.3
2017-Oct-16 17:59N 47°36' W 122°20'613.2
2017-Oct-16 17:30N 47°37' W 122°30'0 0.9
2017-Oct-16 17:00N 47°37' W 122°30'712.7
2017-Oct-16 16:29N 47°36' W 122°20'4 7.7
2017-Oct-16 16:00N 47°37' W 122°26'3 6.2
2017-Oct-16 15:29N 47°37' W 122°31'511.1
2017-Oct-16 15:00N 47°36' W 122°23'5 5.2
2017-Oct-16 13:59N 47°37' W 122°31'2 3.8
2017-Oct-16 13:31N 47°36' W 122°29'610.0
2017-Oct-16 12:58N 47°36' W 122°20'510.9
2017-Oct-16 12:30N 47°36' W 122°28'2 4.0
2017-Oct-16 11:59N 47°37' W 122°31'0 0.0
2017-Oct-16 11:29N 47°37' W 122°31'0 0.0
2017-Oct-16 10:59N 47°37' W 122°31'0 0.0
2017-Oct-16 10:29N 47°37' W 122°31'0 0.0
2017-Oct-16 09:59N 47°37' W 122°31'3 6.2
2017-Oct-16 09:30N 47°36' W 122°27'4 8.1
2017-Oct-16 09:00N 47°36' W 122°20'613.0
2017-Oct-16 08:30N 47°37' W 122°30'2 4.3
2017-Oct-16 08:00N 47°36' W 122°27'4 8.4
2017-Oct-16 07:30N 47°36' W 122°21'712.5
2017-Oct-16 06:58N 47°37' W 122°31'2 5.4
2017-Oct-16 06:31N 47°36' W 122°27'4 8.5
2017-Oct-16 06:00N 47°36' W 122°21'713.0
2017-Oct-16 05:30N 47°37' W 122°31'3 6.4
2017-Oct-16 05:00N 47°36' W 122°26'4 7.8
2017-Oct-16 04:30N 47°36' W 122°20'612.7
2017-Oct-16 04:00N 47°37' W 122°30'1 2.1
2017-Oct-16 03:31N 47°36' W 122°29'611.2
2017-Oct-16 03:00N 47°36' W 122°20'3 6.9
2017-Oct-16 02:30N 47°37' W 122°25'4 6.5
2017-Oct-16 01:58N 47°37' W 122°31'511.6
2017-Oct-16 01:30N 47°36' W 122°23'1 2.2
2017-Oct-16 01:00N 47°36' W 122°21'611.9
2017-Oct-16 00:29N 47°37' W 122°31'2 4.7
2017-Oct-16 00:00N 47°36' W 122°28'5 9.1
2017-Oct-15 23:27N 47°36' W 122°20'612.9
2017-Oct-15 23:01N 47°36' W 122°29'1 3.0
2017-Oct-15 22:31N 47°37' W 122°31'713.7
2017-Oct-15 22:01N 47°36' W 122°21'1 2.6
2017-Oct-15 21:30N 47°36' W 122°22'610.4
2017-Oct-15 20:58N 47°37' W 122°31'3 6.2
2017-Oct-15 20:30N 47°36' W 122°27'4 8.6
2017-Oct-15 20:00N 47°36' W 122°20'612.8
2017-Oct-15 19:30N 47°37' W 122°30'1 1.4
2017-Oct-15 18:58N 47°37' W 122°31'612.2
2017-Oct-15 18:30N 47°36' W 122°22'1 2.4
2017-Oct-15 17:58N 47°36' W 122°20'613.4
2017-Oct-15 17:31N 47°37' W 122°30'1 1.0
2017-Oct-15 17:00N 47°37' W 122°30'612.1
2017-Oct-15 16:29N 47°36' W 122°20'4 7.5
2017-Oct-15 16:01N 47°36' W 122°26'3 6.4
2017-Oct-15 15:29N 47°37' W 122°31'611.7
2017-Oct-15 15:00N 47°36' W 122°23'6 5.5
2017-Oct-15 14:00N 47°37' W 122°31'1 2.9
2017-Oct-15 13:31N 47°36' W 122°29'611.1
2017-Oct-15 12:59N 47°36' W 122°20'511.0
2017-Oct-15 12:30N 47°36' W 122°28'2 3.5
2017-Oct-15 11:56N 47°37' W 122°31'0 0.0
2017-Oct-15 11:29N 47°37' W 122°31'0 0.0
2017-Oct-15 10:59N 47°37' W 122°31'0 0.0
2017-Oct-15 10:29N 47°37' W 122°31'0 0.0
2017-Oct-15 10:00N 47°37' W 122°31'2 4.7
2017-Oct-15 09:30N 47°36' W 122°28'5 9.6
2017-Oct-15 09:00N 47°36' W 122°20'713.2
2017-Oct-15 08:29N 47°37' W 122°31'4 7.8
2017-Oct-15 08:00N 47°36' W 122°25'2 4.2
2017-Oct-15 07:30N 47°36' W 122°22'611.1
2017-Oct-15 06:59N 47°37' W 122°31'5 9.6
2017-Oct-15 06:30N 47°36' W 122°24'1 1.6
2017-Oct-15 06:00N 47°36' W 122°23'5 9.8
2017-Oct-15 05:28N 47°37' W 122°31'4 7.7
2017-Oct-15 05:00N 47°36' W 122°26'4 6.7
2017-Oct-15 04:29N 47°36' W 122°20'613.1
2017-Oct-15 04:00N 47°37' W 122°30'1 1.0
2017-Oct-15 03:30N 47°36' W 122°29'611.3
2017-Oct-15 02:59N 47°36' W 122°20'3 6.9
2017-Oct-15 02:30N 47°36' W 122°25'4 7.4
2017-Oct-15 02:01N 47°37' W 122°31'711.2
2017-Oct-15 01:23N 47°36' W 122°20'3 7.8
2017-Oct-15 01:00N 47°37' W 122°25'4 7.8
2017-Oct-15 00:30N 47°37' W 122°31'5 9.9
2017-Oct-15 00:00N 47°36' W 122°24'2 4.1
2017-Oct-14 23:29N 47°36' W 122°20'613.0
2017-Oct-14 23:00N 47°37' W 122°30'1 1.1
2017-Oct-14 22:30N 47°37' W 122°30'713.1
2017-Oct-14 22:00N 47°36' W 122°21'0 0.7
2017-Oct-14 21:30N 47°36' W 122°21'712.6
2017-Oct-14 21:00N 47°37' W 122°31'2 4.5
2017-Oct-14 20:30N 47°36' W 122°28'510.3
2017-Oct-14 20:00N 47°36' W 122°20'510.4
2017-Oct-14 19:30N 47°36' W 122°28'2 3.7
2017-Oct-14 18:59N 47°37' W 122°31'612.2
2017-Oct-14 18:30N 47°36' W 122°22'1 2.2
2017-Oct-14 17:59N 47°36' W 122°20'613.3
2017-Oct-14 17:30N 47°37' W 122°30'0 0.8
2017-Oct-14 17:00N 47°37' W 122°30'610.1
2017-Oct-14 16:22N 47°36' W 122°20'3 9.4
2017-Oct-14 16:00N 47°37' W 122°25'4 7.0
2017-Oct-14 15:30N 47°37' W 122°31'611.2
2017-Oct-14 15:01N 47°36' W 122°23'1 2.0
2017-Oct-14 14:30N 47°36' W 122°21'712.4
2017-Oct-14 13:59N 47°37' W 122°31'1 2.4
2017-Oct-14 13:30N 47°37' W 122°29'610.7
2017-Oct-14 12:56N 47°36' W 122°20'613.7
2017-Oct-14 12:30N 47°36' W 122°29'1 2.6
2017-Oct-14 11:59N 47°37' W 122°31'0 0.0
2017-Oct-14 11:29N 47°37' W 122°31'0 0.0
2017-Oct-14 10:59N 47°37' W 122°31'0 0.0
2017-Oct-14 10:29N 47°37' W 122°31'0 0.0
2017-Oct-14 09:59N 47°37' W 122°31'0 0.0
2017-Oct-14 09:29N 47°37' W 122°31'0 0.0
2017-Oct-14 08:59N 47°37' W 122°31'0 0.0
2017-Oct-14 08:29N 47°37' W 122°31'0 0.0
2017-Oct-14 07:59N 47°37' W 122°31'0 0.0
2017-Oct-14 07:29N 47°37' W 122°31'0 0.0
2017-Oct-14 06:59N 47°37' W 122°31'0 0.0
2017-Oct-14 06:28N 47°37' W 122°31'0 0.0
2017-Oct-14 06:00N 47°37' W 122°31'0 0.4
2017-Oct-14 05:30N 47°37' W 122°30'713.1
2017-Oct-14 05:00N 47°36' W 122°20'0 0.0
2017-Oct-14 04:30N 47°36' W 122°20'612.8
2017-Oct-14 04:00N 47°37' W 122°30'1 1.9
2017-Oct-14 03:30N 47°36' W 122°29'611.1
2017-Oct-14 03:00N 47°36' W 122°20'2 4.1
2017-Oct-14 02:30N 47°37' W 122°23'5 9.2
2017-Oct-14 01:59N 47°37' W 122°31'713.1
2017-Oct-14 01:28N 47°36' W 122°21'0 0.3
2017-Oct-14 01:00N 47°36' W 122°21'7 9.5
2017-Oct-14 00:17N 47°37' W 122°31'310.3
2017-Oct-14 00:00N 47°36' W 122°26'4 6.2
2017-Oct-13 23:20N 47°36' W 122°20'515.4
2017-Oct-13 23:01N 47°36' W 122°28'2 4.0
2017-Oct-13 22:30N 47°37' W 122°30'713.3
2017-Oct-13 22:00N 47°36' W 122°20'1 2.3
2017-Oct-13 21:31N 47°36' W 122°22'611.4
2017-Oct-13 21:00N 47°37' W 122°31'2 5.0
2017-Oct-13 20:30N 47°36' W 122°28'5 9.2
2017-Oct-13 19:59N 47°36' W 122°20'510.9
2017-Oct-13 19:30N 47°36' W 122°28'2 3.8
2017-Oct-13 19:00N 47°37' W 122°31'611.4
2017-Oct-13 18:30N 47°36' W 122°22'1 2.7
2017-Oct-13 17:59N 47°36' W 122°20'613.1
2017-Oct-13 17:31N 47°37' W 122°30'0 1.0
2017-Oct-13 17:01N 47°37' W 122°30'713.1
2017-Oct-13 16:30N 47°36' W 122°20'4 7.7
2017-Oct-13 16:01N 47°36' W 122°26'3 6.3
2017-Oct-13 15:29N 47°37' W 122°31'511.1
2017-Oct-13 15:00N 47°36' W 122°23'1 1.9
2017-Oct-13 14:30N 47°36' W 122°21'611.9
2017-Oct-13 13:59N 47°37' W 122°31'2 4.1
2017-Oct-13 13:31N 47°36' W 122°28'510.0
2017-Oct-13 12:58N 47°36' W 122°20'510.8
2017-Oct-13 12:30N 47°36' W 122°28'2 4.7
2017-Oct-13 12:00N 47°37' W 122°31'0 0.0
2017-Oct-13 11:26N 47°37' W 122°31'0 0.0
2017-Oct-13 10:59N 47°37' W 122°31'0 0.0
2017-Oct-13 10:29N 47°37' W 122°31'0 0.0
2017-Oct-13 09:59N 47°37' W 122°31'0 0.0
2017-Oct-13 09:29N 47°37' W 122°31'0 0.0
2017-Oct-13 09:00N 47°37' W 122°31'0 0.0
2017-Oct-13 08:29N 47°37' W 122°31'0 0.0
2017-Oct-13 08:00N 47°37' W 122°31'0 0.0
2017-Oct-13 07:26N 47°37' W 122°31'0 0.0
2017-Oct-13 06:59N 47°37' W 122°31'0 0.0
2017-Oct-13 06:29N 47°37' W 122°31'0 0.0
2017-Oct-13 05:59N 47°37' W 122°31'1 1.1
2017-Oct-13 05:30N 47°37' W 122°30'612.4
2017-Oct-13 04:59N 47°36' W 122°20'0 0.0
2017-Oct-13 04:30N 47°36' W 122°20'612.7
2017-Oct-13 04:00N 47°37' W 122°30'1 1.8
2017-Oct-13 03:30N 47°36' W 122°29'611.0
2017-Oct-13 02:59N 47°36' W 122°20'3 6.6
2017-Oct-13 02:31N 47°37' W 122°25'4 7.7
2017-Oct-13 02:00N 47°37' W 122°31'713.3
2017-Oct-13 01:30N 47°36' W 122°21'0 0.5
2017-Oct-13 01:00N 47°36' W 122°21'613.0
2017-Oct-13 00:31N 47°37' W 122°31'3 5.2
2017-Oct-13 00:00N 47°36' W 122°27'5 8.6
2017-Oct-12 23:29N 47°36' W 122°20'511.2
2017-Oct-12 23:00N 47°36' W 122°28'2 3.5
2017-Oct-12 22:30N 47°37' W 122°31'713.6
2017-Oct-12 22:00N 47°36' W 122°20'1 2.1
2017-Oct-12 21:30N 47°36' W 122°22'611.4
2017-Oct-12 21:00N 47°37' W 122°31'1 2.6
2017-Oct-12 20:30N 47°36' W 122°29'611.1
2017-Oct-12 19:58N 47°36' W 122°20'510.8
2017-Oct-12 19:30N 47°36' W 122°28'2 4.0
2017-Oct-12 19:00N 47°37' W 122°31'611.7
2017-Oct-12 18:30N 47°36' W 122°22'1 2.6
2017-Oct-12 18:00N 47°36' W 122°20'612.4
2017-Oct-12 17:31N 47°37' W 122°30'1 1.4
2017-Oct-12 17:00N 47°37' W 122°30'712.8
2017-Oct-12 16:29N 47°36' W 122°20'3 7.2
2017-Oct-12 16:01N 47°37' W 122°25'4 6.9
2017-Oct-12 15:30N 47°37' W 122°31'611.2
2017-Oct-12 15:00N 47°36' W 122°22'1 2.3
2017-Oct-12 14:30N 47°36' W 122°21'713.4
2017-Oct-12 14:00N 47°37' W 122°31'2 4.6
2017-Oct-12 13:30N 47°36' W 122°28'5 8.7
2017-Oct-12 12:56N 47°36' W 122°20'511.9
2017-Oct-12 12:30N 47°36' W 122°28'2 3.4
2017-Oct-12 11:55N 47°37' W 122°31'0 0.0
2017-Oct-12 11:29N 47°37' W 122°31'0 0.0
2017-Oct-12 10:58N 47°37' W 122°31'0 0.0
2017-Oct-12 10:28N 47°37' W 122°31'0 0.0
2017-Oct-12 09:58N 47°37' W 122°31'0 0.0
2017-Oct-12 09:28N 47°37' W 122°31'0 0.0
2017-Oct-12 08:58N 47°37' W 122°31'0 0.0
2017-Oct-12 08:29N 47°37' W 122°31'0 0.0
2017-Oct-12 07:59N 47°37' W 122°31'0 0.0
2017-Oct-12 07:28N 47°37' W 122°31'0 0.0
2017-Oct-12 06:58N 47°37' W 122°31'0 0.0
2017-Oct-12 06:28N 47°37' W 122°31'0 0.0
2017-Oct-12 05:58N 47°37' W 122°31'0 0.9
2017-Oct-12 05:30N 47°37' W 122°30'712.7
2017-Oct-12 05:00N 47°36' W 122°20'0 0.0
2017-Oct-12 04:30N 47°36' W 122°20'713.1
2017-Oct-12 04:00N 47°37' W 122°30'1 2.6
2017-Oct-12 03:30N 47°36' W 122°29'610.6
2017-Oct-12 02:59N 47°36' W 122°20'2 4.2
2017-Oct-12 02:30N 47°36' W 122°23'5 9.2
2017-Oct-12 01:58N 47°37' W 122°31'4 9.4
2017-Oct-12 01:30N 47°36' W 122°24'2 4.7
2017-Oct-12 01:00N 47°36' W 122°21'713.7
2017-Oct-12 00:30N 47°37' W 122°30'1 2.8
2017-Oct-12 00:00N 47°36' W 122°29'611.2
2017-Oct-11 23:30N 47°36' W 122°20'510.8
2017-Oct-11 23:00N 47°37' W 122°28'2 3.6
2017-Oct-11 22:30N 47°37' W 122°31'713.7
2017-Oct-11 22:00N 47°36' W 122°21'1 1.2
2017-Oct-11 21:31N 47°36' W 122°21'612.2
2017-Oct-11 20:59N 47°37' W 122°31'1 2.4
2017-Oct-11 20:30N 47°36' W 122°29'610.5
2017-Oct-11 19:56N 47°36' W 122°20'512.7
2017-Oct-11 19:30N 47°36' W 122°28'2 3.3
2017-Oct-11 18:58N 47°37' W 122°31'612.3
2017-Oct-11 18:31N 47°36' W 122°22'1 2.3
2017-Oct-11 17:59N 47°36' W 122°20'613.4
2017-Oct-11 17:30N 47°37' W 122°30'1 1.4
2017-Oct-11 17:00N 47°36' W 122°29'3 0.2
2017-Oct-11 00:00N 47°36' W 122°24'4 8.7
2017-Oct-10 23:30N 47°37' W 122°31'4 8.5
2017-Oct-10 23:01N 47°36' W 122°25'3 5.6
2017-Oct-10 22:30N 47°36' W 122°20'713.2
2017-Oct-10 22:00N 47°37' W 122°30'0 0.2
2017-Oct-10 21:30N 47°37' W 122°30'612.2
2017-Oct-10 20:59N 47°36' W 122°20'2 3.7
2017-Oct-10 20:30N 47°36' W 122°23'510.0
2017-Oct-10 20:00N 47°37' W 122°31'4 8.5
2017-Oct-10 19:31N 47°36' W 122°25'3 5.7
2017-Oct-10 19:00N 47°36' W 122°20'712.9
2017-Oct-10 18:28N 47°37' W 122°31'2 3.3
2017-Oct-10 18:01N 47°36' W 122°29'611.0
2017-Oct-10 17:29N 47°36' W 122°20'2 3.9
2017-Oct-10 17:01N 47°36' W 122°23'5 9.6
2017-Oct-10 16:29N 47°37' W 122°31'3 7.4
2017-Oct-10 16:00N 47°36' W 122°26'4 7.3
2017-Oct-10 15:30N 47°36' W 122°20'713.4
2017-Oct-10 14:59N 47°37' W 122°31'7 7.1
2017-Oct-10 14:01N 47°36' W 122°20'510.2
2017-Oct-10 13:30N 47°36' W 122°28'2 3.7
2017-Oct-10 13:00N 47°37' W 122°30'713.4
2017-Oct-10 12:30N 47°36' W 122°21'3 6.6
2017-Oct-10 12:01N 47°36' W 122°25'4 6.7
2017-Oct-10 11:28N 47°37' W 122°31'0 0.0
2017-Oct-10 11:00N 47°37' W 122°31'0 0.0
2017-Oct-10 10:30N 47°37' W 122°31'0 0.0
2017-Oct-10 10:00N 47°37' W 122°31'0 0.0
2017-Oct-10 09:30N 47°37' W 122°31'1 1.3
2017-Oct-10 09:01N 47°37' W 122°30'612.6
2017-Oct-10 08:30N 47°36' W 122°20'713.1
2017-Oct-10 08:00N 47°37' W 122°30'2 4.7
2017-Oct-10 07:30N 47°36' W 122°27'3 6.8
2017-Oct-10 07:01N 47°36' W 122°22'611.7
2017-Oct-10 06:30N 47°37' W 122°31'511.1
2017-Oct-10 06:00N 47°36' W 122°23'2 3.0
2017-Oct-10 05:29N 47°36' W 122°20'4 7.9
2017-Oct-10 05:01N 47°36' W 122°26'3 6.1
2017-Oct-10 04:31N 47°37' W 122°30'712.9
2017-Oct-10 03:59N 47°36' W 122°20'2 5.0
2017-Oct-10 03:30N 47°37' W 122°24'5 9.1
2017-Oct-10 03:00N 47°37' W 122°31'4 8.1
2017-Oct-10 02:31N 47°36' W 122°25'3 5.8
2017-Oct-10 02:00N 47°36' W 122°21'713.6
2017-Oct-10 01:30N 47°37' W 122°30'0 0.8
2017-Oct-10 01:00N 47°37' W 122°30'612.5
2017-Oct-10 00:30N 47°36' W 122°20'2 3.2
2017-Oct-10 00:00N 47°36' W 122°23'510.2
2017-Oct-09 23:29N 47°37' W 122°31'4 8.9
2017-Oct-09 23:00N 47°36' W 122°25'3 5.3
2017-Oct-09 22:29N 47°36' W 122°20'613.4
2017-Oct-09 22:00N 47°37' W 122°30'0 0.1
2017-Oct-09 21:30N 47°37' W 122°30'611.5
2017-Oct-09 20:57N 47°36' W 122°20'3 6.8
2017-Oct-09 20:30N 47°37' W 122°25'4 7.8
2017-Oct-09 20:00N 47°37' W 122°31'611.9
2017-Oct-09 19:31N 47°36' W 122°22'0 0.7
2017-Oct-09 19:01N 47°36' W 122°21'612.1
2017-Oct-09 18:30N 47°37' W 122°30'1 2.9
2017-Oct-09 18:00N 47°36' W 122°29'610.3
2017-Oct-09 17:26N 47°36' W 122°20'2 5.2
2017-Oct-09 17:00N 47°37' W 122°24'5 8.9
2017-Oct-09 16:29N 47°37' W 122°31'3 6.1
2017-Oct-09 16:00N 47°36' W 122°27'4 8.3
2017-Oct-09 15:30N 47°36' W 122°20'612.9
2017-Oct-09 15:00N 47°37' W 122°30'1 1.1
2017-Oct-09 14:30N 47°36' W 122°29'611.8
2017-Oct-09 14:00N 47°36' W 122°20'5 9.9
2017-Oct-09 13:30N 47°36' W 122°27'2 4.6
2017-Oct-09 13:00N 47°37' W 122°31'713.6
2017-Oct-09 12:30N 47°36' W 122°21'4 7.6
2017-Oct-09 12:01N 47°36' W 122°26'3 6.5
2017-Oct-09 11:30N 47°37' W 122°31'0 0.0
2017-Oct-09 11:00N 47°37' W 122°31'0 0.0
2017-Oct-09 10:30N 47°37' W 122°31'0 0.0
2017-Oct-09 10:00N 47°37' W 122°31'0 0.0
2017-Oct-09 09:31N 47°37' W 122°31'  

Dump ship's entire track history